Amelia Court House, Virginia
Current Conditions -  °F | °C
As of 6:55 PM on Sunday 23 Nov 2014 (Local Time) from KW81 Reporting Station
Overcast Overcast  
Wind Chill: 52°   Ceiling: 2400
Heat Index: 52°   Visibility: 10mi
Dew Point: 45°   Wind: 0mph
Humidity: 78%   Direction: NA
Pressure: 29.99"   Gusts: NA
Location:  37.34°N, 77.98°W
Report Text: KW81 232355Z AUTO 00000KT 10SM BKN024 BKN031 OVC043 11/07 A2999 RMK AO1 T01100073 10118 20096
Loading
Personal Weather Stations






























Interactive Weather Map New forecast layout! Learn more

10-Day Weather Forecast

Advertisements
Track Severe Weather on mobile